Time;durP1;ratioP1;P1;durP2;ratioP2;P2;SDS_P1;SDS_P2;PMS_P1;PMS_P2;Temp;Humidity;BMP_temperature;BMP_pressure;BME280_temperature;BME280_humidity;BME280_pressure;Samples;Min_cycle;Max_cycle;Signal;HPM_P1;HPM_P2
2023/04/15 05:52:17;;;;;;;3.78;2.85;;;;;;;;;;10592167;27;20528;-86
2023/04/15 05:57:18;;;;;;;;;;;;;;;;;;10591520;28;20027;-86
2023/04/15 06:02:20;;;;;;;8.05;5.85;;;;;;;;;;10589745;28;19904;-86
2023/04/15 06:07:21;;;;;;;4.53;4.05;;;;;;;;;;10588827;28;20016;-86
2023/04/15 06:12:22;;;;;;;;;;;;;;;;;;10589011;28;20016;-86
2023/04/15 06:17:24;;;;;;;8.27;3.58;;;;;;;;;;10588318;28;19904;-86
2023/04/15 06:22:25;;;;;;;6.90;4.43;;;;;;;;;;10594976;28;20092;-85
2023/04/15 06:27:26;;;;;;;6.20;5.60;;;;;;;;;;10611509;28;20024;-85
2023/04/15 06:32:27;;;;;;;6.50;3.53;;;;;;;;;;10593022;28;20024;-86
2023/04/15 06:37:28;;;;;;;3.90;3.03;;;;;;;;;;10585872;28;20421;-84
2023/04/15 06:42:29;;;;;;;4.25;3.13;;;;;;;;;;10585762;28;20022;-87
2023/04/15 06:47:31;;;;;;;6.72;3.92;;;;;;;;;;10584171;28;20020;-85
2023/04/15 06:52:32;;;;;;;7.90;3.42;;;;;;;;;;10584889;28;20499;-85
2023/04/15 06:57:33;;;;;;;4.22;3.35;;;;;;;;;;10583806;28;20028;-84
2023/04/15 07:02:34;;;;;;;5.45;4.18;;;;;;;;;;10561066;28;20422;-84
2023/04/15 07:07:38;;;;;;;3.55;2.28;;;;;;;;;;10557997;28;20046;-84
2023/04/15 07:12:39;;;;;;;3.92;2.60;;;;;;;;;;10559743;28;20030;-83
2023/04/15 07:17:42;;;;;;;4.47;3.42;;;;;;;;;;10565395;28;20028;-82
2023/04/15 07:22:43;;;;;;;4.32;3.40;;;;;;;;;;10582281;28;20110;-82
2023/04/15 07:27:44;;;;;;;4.30;3.10;;;;;;;;;;10567705;28;20035;-83
2023/04/15 07:32:45;;;;;;;5.25;3.55;;;;;;;;;;10568615;28;20040;-83
2023/04/15 07:37:47;;;;;;;4.28;3.33;;;;;;;;;;10573047;28;20062;-83
2023/04/15 07:42:48;;;;;;;6.93;5.38;;;;;;;;;;10555576;28;20125;-83
2023/04/15 07:47:50;;;;;;;4.38;2.45;;;;;;;;;;10554693;28;20020;-84
2023/04/15 07:52:51;;;;;;;2.67;2.20;;;;;;;;;;10559416;28;20070;-83
2023/04/15 07:57:52;;;;;;;3.92;2.53;;;;;;;;;;10557241;28;20035;-83
2023/04/15 08:02:56;;;;;;;4.95;2.92;;;;;;;;;;10562495;28;20474;-82
2023/04/15 08:07:57;;;;;;;4.10;2.58;;;;;;;;;;10554510;28;20024;-85
2023/04/15 08:12:58;;;;;;;6.78;4.15;;;;;;;;;;10556715;28;20020;-85
2023/04/15 08:18:00;;;;;;;5.05;3.83;;;;;;;;;;10556963;28;20020;-84
2023/04/15 08:23:02;;;;;;;3.90;3.30;;;;;;;;;;10558822;28;20023;-85
2023/04/15 08:28:06;;;;;;;5.97;3.53;;;;;;;;;;10558238;28;20054;-86
2023/04/15 08:33:07;;;;;;;4.85;3.30;;;;;;;;;;10558008;28;20016;-84
2023/04/15 08:38:08;;;;;;;;;;;;;;;;;;10559672;28;20393;-86
2023/04/15 08:43:10;;;;;;;5.57;3.60;;;;;;;;;;10558919;28;19904;-85
2023/04/15 08:48:15;;;;;;;5.22;3.00;;;;;;;;;;10571064;28;20048;-84
2023/04/15 08:53:16;;;;;;;4.35;2.75;;;;;;;;;;10577865;28;20024;-83
2023/04/15 08:58:18;;;;;;;6.47;3.80;;;;;;;;;;10554633;28;20031;-85
2023/04/15 09:03:21;;;;;;;4.68;3.17;;;;;;;;;;10555059;28;20110;-84
2023/04/15 09:08:22;;;;;;;4.45;3.13;;;;;;;;;;10553076;28;20020;-84
2023/04/15 09:13:24;;;;;;;;;;;;;;;;;;10552590;28;20055;-83
2023/04/15 09:18:29;;;;;;;3.83;2.25;;;;;;;;;;10553887;28;19904;-84
2023/04/15 09:23:30;;;;;;;2.97;2.00;;;;;;;;;;10552741;28;20362;-84
2023/04/15 09:28:32;;;;;;;3.22;2.35;;;;;;;;;;10553918;28;20565;-84
2023/04/15 09:33:33;;;;;;;3.95;2.40;;;;;;;;;;10554439;28;20098;-84
2023/04/15 09:38:34;;;;;;;;;;;;;;;;;;10555736;28;20148;-83
2023/04/15 09:43:39;;;;;;;4.35;3.28;;;;;;;;;;10552785;28;19904;-83
2023/04/15 09:48:40;;;;;;;4.70;3.25;;;;;;;;;;10548961;28;20035;-82
2023/04/15 09:53:41;;;;;;;;;;;;;;;;;;10547018;28;20059;-81
2023/04/15 09:58:43;;;;;;;5.00;4.47;;;;;;;;;;10547321;28;19904;-82
2023/04/15 10:03:45;;;;;;;2.97;2.40;;;;;;;;;;10547005;28;20028;-82
2023/04/15 10:08:46;;;;;;;9.65;6.75;;;;;;;;;;10551236;28;20024;-83
2023/04/15 10:13:49;;;;;;;4.47;3.20;;;;;;;;;;10554190;28;20119;-85
2023/04/15 10:18:53;;;;;;;4.60;3.08;;;;;;;;;;10569172;28;20124;-83
2023/04/15 10:23:54;;;;;;;5.95;3.92;;;;;;;;;;10569624;28;20028;-82
2023/04/15 10:28:55;;;;;;;;;;;;;;;;;;10553397;28;20035;-83
2023/04/15 10:33:56;;;;;;;5.40;3.05;;;;;;;;;;10549866;28;19930;-86
2023/04/15 10:38:57;;;;;;;4.05;2.85;;;;;;;;;;10559110;28;20050;-83
2023/04/15 10:43:58;;;;;;;;;;;;;;;;;;10565562;28;20108;-85
2023/04/15 10:49:06;;;;;;;4.50;3.63;;;;;;;;;;10569602;28;20007;-85
2023/04/15 10:54:14;;;;;;;3.42;2.92;;;;;;;;;;10577934;28;20047;-84
2023/04/15 10:59:17;;;;;;;2.97;2.25;;;;;;;;;;10570622;28;20051;-85
2023/04/15 11:04:36;;;;;;;3.42;2.40;;;;;;;;;;10565700;28;20115;-85
2023/04/15 11:09:37;;;;;;;4.10;3.60;;;;;;;;;;10561724;28;20088;-84
2023/04/15 11:14:42;;;;;;;8.18;6.63;;;;;;;;;;10562819;28;20025;-85
2023/04/15 11:19:43;;;;;;;4.20;3.53;;;;;;;;;;10557642;28;20024;-85
2023/04/15 11:24:44;;;;;;;;;;;;;;;;;;10558392;28;20024;-84
2023/04/15 11:29:45;;;;;;;4.80;4.30;;;;;;;;;;10559357;28;19912;-85
2023/04/15 11:34:47;;;;;;;5.82;4.55;;;;;;;;;;10562334;28;20119;-82
2023/04/15 11:39:49;;;;;;;5.20;3.72;;;;;;;;;;10570690;28;20039;-83
2023/04/15 11:44:50;;;;;;;3.95;2.92;;;;;;;;;;10569775;28;20043;-81
2023/04/15 11:49:51;;;;;;;3.70;2.15;;;;;;;;;;10552185;28;20070;-82
2023/04/15 11:54:52;;;;;;;;;;;;;;;;;;10554457;28;20027;-84
2023/04/15 11:59:55;;;;;;;4.22;2.80;;;;;;;;;;10553881;28;19904;-84
2023/04/15 12:05:05;;;;;;;5.13;3.92;;;;;;;;;;10466771;22;20499;-83
2023/04/15 12:21:34;;;;;;;3.83;2.40;;;;;;;;;;10193025;29;20127;-83
2023/04/15 12:26:46;;;;;;;4.57;2.80;;;;;;;;;;10313831;28;20058;-81
2023/04/15 12:32:26;;;;;;;8.13;4.13;;;;;;;;;;10374705;28;20010;-81
2023/04/15 12:37:37;;;;;;;3.97;2.47;;;;;;;;;;10359001;28;20042;-83
2023/04/15 12:42:38;;;;;;;3.83;2.53;;;;;;;;;;10371172;28;20117;-83
2023/04/15 12:47:40;;;;;;;4.90;3.83;;;;;;;;;;10371389;28;20034;-82
2023/04/15 12:52:42;;;;;;;;;;;;;;;;;;10370959;28;20439;-82
2023/04/15 12:58:03;;;;;;;2.50;1.95;;;;;;;;;;10354752;28;19956;-83
2023/04/15 13:03:05;;;;;;;3.47;2.40;;;;;;;;;;10372298;28;20034;-83
2023/04/15 13:08:08;;;;;;;7.45;5.43;;;;;;;;;;10373292;28;20034;-83
2023/04/15 13:13:09;;;;;;;3.50;2.40;;;;;;;;;;10372078;28;20117;-83
2023/04/15 13:18:10;;;;;;;3.75;2.90;;;;;;;;;;10372143;28;20098;-83
2023/04/15 13:23:11;;;;;;;;;;;;;;;;;;10372087;28;20035;-83
2023/04/15 13:28:12;;;;;;;2.70;2.22;;;;;;;;;;10355763;28;19969;-83
2023/04/15 13:33:13;;;;;;;;;;;;;;;;;;10373757;28;20026;-84
2023/04/15 13:38:14;;;;;;;5.32;2.60;;;;;;;;;;10355512;28;19917;-83
2023/04/15 13:43:16;;;;;;;;;;;;;;;;;;10370643;28;20061;-83
2023/04/15 13:48:17;;;;;;;5.28;3.00;;;;;;;;;;10353259;28;19910;-83
2023/04/15 13:53:18;;;;;;;;;;;;;;;;;;10382129;28;20038;-83
2023/04/15 13:58:19;;;;;;;3.33;2.58;;;;;;;;;;10370740;28;19909;-83
2023/04/15 14:03:20;;;;;;;;;;;;;;;;;;10358045;28;20031;-83
2023/04/15 14:08:21;;;;;;;6.35;4.03;;;;;;;;;;10354915;28;19909;-83
2023/04/15 14:13:22;;;;;;;2.95;2.13;;;;;;;;;;10378829;28;20026;-84
2023/04/15 14:18:23;;;;;;;;;;;;;;;;;;10380049;28;20054;-84
2023/04/15 14:23:24;;;;;;;2.83;2.10;;;;;;;;;;10362709;28;19972;-84
2023/04/15 14:28:25;;;;;;;4.38;3.20;;;;;;;;;;10378583;28;20034;-84
2023/04/15 14:33:26;;;;;;;3.15;2.40;;;;;;;;;;10378795;28;20034;-84
2023/04/15 14:38:27;;;;;;;;;;;;;;;;;;10362335;28;20034;-83
2023/04/15 14:43:28;;;;;;;4.22;2.65;;;;;;;;;;10360583;28;19960;-83
2023/04/15 14:48:29;;;;;;;;;;;;;;;;;;10362438;28;20085;-83
2023/04/15 14:53:30;;;;;;;2.53;1.80;;;;;;;;;;10358771;28;20000;-83
2023/04/15 14:58:32;;;;;;;;;;;;;;;;;;10375779;28;20038;-83
2023/04/15 15:03:33;;;;;;;;;;;;;;;;;;10360221;28;19918;-83
2023/04/15 15:08:35;;;;;;;4.30;2.10;;;;;;;;;;10360634;28;20001;-83
2023/04/15 15:13:36;;;;;;;2.33;1.55;;;;;;;;;;10375897;28;20081;-83
2023/04/15 15:18:40;;;;;;;2.22;1.80;;;;;;;;;;10375048;28;20045;-83
2023/04/15 15:23:41;;;;;;;3.75;2.72;;;;;;;;;;10377355;28;20104;-83
2023/04/15 15:28:44;;;;;;;2.58;1.80;;;;;;;;;;10377722;28;20424;-83
2023/04/15 15:33:45;;;;;;;4.22;2.58;;;;;;;;;;10389122;28;20114;-83
2023/04/15 15:38:46;;;;;;;;;;;;;;;;;;10391111;28;20038;-83
2023/04/15 15:43:50;;;;;;;2.78;2.03;;;;;;;;;;10357629;28;19981;-83
2023/04/15 15:48:51;;;;;;;2.45;1.92;;;;;;;;;;10374281;28;20088;-83
2023/04/15 15:53:52;;;;;;;;;;;;;;;;;;10358899;28;20027;-83
2023/04/15 15:58:53;;;;;;;4.00;2.90;;;;;;;;;;10356284;28;20020;-83
2023/04/15 16:03:54;;;;;;;;;;;;;;;;;;10377617;28;20048;-82
2023/04/15 16:08:55;;;;;;;4.72;1.90;;;;;;;;;;10373003;28;19910;-82
2023/04/15 16:13:56;;;;;;;;;;;;;;;;;;10389353;28;20098;-82
2023/04/15 16:18:57;;;;;;;3.83;1.90;;;;;;;;;;10371352;28;19968;-83
2023/04/15 16:23:58;;;;;;;3.38;2.20;;;;;;;;;;10382878;28;20069;-82
2023/04/15 16:29:00;;;;;;;3.67;2.40;;;;;;;;;;10375368;28;20128;-83
2023/04/15 16:34:02;;;;;;;1.80;1.52;;;;;;;;;;10371173;28;20022;-83
2023/04/15 16:39:03;;;;;;;3.67;2.10;;;;;;;;;;10372277;28;20026;-83
2023/04/15 16:44:07;;;;;;;3.83;1.92;;;;;;;;;;10372920;28;20093;-83
2023/04/15 16:49:08;;;;;;;2.40;1.90;;;;;;;;;;10381730;28;20066;-82
2023/04/15 16:54:09;;;;;;;4.65;2.30;;;;;;;;;;10393747;28;20023;-82
2023/04/15 16:59:10;;;;;;;;;;;;;;;;;;10378973;28;20034;-83
2023/04/15 17:04:11;;;;;;;3.15;1.70;;;;;;;;;;10354989;28;19914;-84
2023/04/15 17:09:12;;;;;;;;;;;;;;;;;;10383960;28;20045;-84
2023/04/15 17:14:13;;;;;;;3.38;2.45;;;;;;;;;;10382036;28;19898;-84
2023/04/15 17:19:17;;;;;;;3.55;2.17;;;;;;;;;;10398319;28;20023;-84
2023/04/15 17:24:18;;;;;;;2.33;1.13;;;;;;;;;;10389514;28;20029;-84
2023/04/15 17:29:19;;;;;;;4.22;2.30;;;;;;;;;;10369779;28;20488;-84
2023/04/15 17:34:20;;;;;;;3.22;2.08;;;;;;;;;;10370924;28;20026;-84
2023/04/15 17:39:24;;;;;;;3.22;1.73;;;;;;;;;;10371770;28;20026;-84
2023/04/15 17:44:25;;;;;;;3.40;1.98;;;;;;;;;;10370666;28;20037;-83
2023/04/15 17:49:28;;;;;;;;;;;;;;;;;;10372098;28;20489;-84
2023/04/15 17:54:29;;;;;;;2.05;1.20;;;;;;;;;;10354848;28;20327;-84
2023/04/15 17:59:32;;;;;;;2.78;1.65;;;;;;;;;;10370648;28;20030;-84
2023/04/15 18:04:33;;;;;;;2.00;1.42;;;;;;;;;;10406178;22;20041;-84
